Time;durP1;ratioP1;P1;durP2;ratioP2;P2;SDS_P1;SDS_P2;PMS_P1;PMS_P2;Temp;Humidity;BMP_temperature;BMP_pressure;BME280_temperature;BME280_humidity;BME280_pressure;Samples;Min_cycle;Max_cycle;Signal;HPM_P1;HPM_P2
2022/09/06 00:00:33;;;;;;;7.47;4.60;;;20.80;62.30;;;;;;4934559;28;20625;-68
2022/09/06 00:02:59;;;;;;;5.47;3.50;;;20.90;62.10;;;;;;4915235;29;20775;-68
2022/09/06 00:05:27;;;;;;;6.23;3.83;;;20.90;62.10;;;;;;4904997;28;20283;-68
2022/09/06 00:07:52;;;;;;;5.87;4.30;;;20.90;62.20;;;;;;4916484;29;20290;-68
2022/09/06 00:10:18;;;;;;;9.87;4.43;;;20.90;62.40;;;;;;4927529;29;20290;-68
2022/09/06 00:12:44;;;;;;;5.57;4.13;;;20.90;62.30;;;;;;4929123;28;20126;-68
2022/09/06 00:15:10;;;;;;;5.87;4.07;;;20.90;62.40;;;;;;4929433;29;20044;-68
2022/09/06 00:17:36;;;;;;;7.37;4.10;;;20.90;62.50;;;;;;4958496;28;20043;-68
2022/09/06 00:20:03;;;;;;;5.87;3.77;;;20.90;63.00;;;;;;4933899;28;20354;-68
2022/09/06 00:22:29;;;;;;;5.10;4.30;;;20.80;63.20;;;;;;4932751;28;20039;-68
2022/09/06 00:24:55;;;;;;;6.00;4.73;;;20.80;63.40;;;;;;4916524;29;20302;-68
2022/09/06 00:27:21;;;;;;;4.63;4.20;;;20.80;63.60;;;;;;4913771;28;20428;-68
2022/09/06 00:29:47;;;;;;;8.07;4.53;;;20.70;63.70;;;;;;4933935;29;20291;-68
2022/09/06 00:32:13;;;;;;;4.17;3.77;;;20.70;63.70;;;;;;4903848;29;20343;-68
2022/09/06 00:34:38;;;;;;;8.30;4.70;;;20.60;63.80;;;;;;4903718;28;20050;-68
2022/09/06 00:37:04;;;;;;;6.60;4.67;;;20.60;63.80;;;;;;4929924;29;20407;-68
2022/09/06 00:39:30;;;;;;;5.17;4.50;;;20.60;63.80;;;;;;4929434;28;20436;-68
2022/09/06 00:41:55;;;;;;;6.70;4.50;;;20.50;64.00;;;;;;4891326;29;20081;-68
2022/09/06 00:44:21;;;;;;;6.77;4.50;;;20.60;64.00;;;;;;4926924;28;20043;-68
2022/09/06 00:46:50;;;;;;;6.67;4.47;;;20.50;64.10;;;;;;4896827;29;20046;-68
2022/09/06 00:49:24;;;;;;;6.20;4.23;;;20.50;64.20;;;;;;4925180;28;20043;-68
2022/09/06 00:51:54;;;;;;;6.68;4.38;;;20.50;64.40;;;;;;4927690;29;20302;-68
2022/09/06 00:54:20;;;;;;;5.30;4.40;;;20.50;64.20;;;;;;4932158;29;20527;-68
2022/09/06 00:56:46;;;;;;;6.47;5.07;;;20.50;64.20;;;;;;4916099;28;20282;-68
2022/09/06 00:59:12;;;;;;;6.67;4.77;;;20.50;64.00;;;;;;4931434;29;20050;-68
2022/09/06 01:01:38;;;;;;;6.53;4.47;;;20.40;63.90;;;;;;4912722;28;20334;-68
2022/09/06 01:04:04;;;;;;;7.53;5.67;;;20.40;63.70;;;;;;4913944;29;20342;-68
2022/09/06 01:06:42;;;;;;;6.03;4.50;;;20.40;63.70;;;;;;4923353;28;20489;-68
2022/09/06 01:09:26;;;;;;;7.90;4.80;;;20.40;63.80;;;;;;4931181;29;20286;-68
2022/09/06 01:12:04;;;;;;;7.90;4.73;;;20.40;63.80;;;;;;4944884;28;20296;-68
2022/09/06 01:14:51;;;;;;;8.53;4.70;;;20.40;64.00;;;;;;4939644;28;20710;-68
2022/09/06 01:17:40;;;;;;;8.40;4.87;;;20.40;64.00;;;;;;4923386;29;20310;-68
2022/09/06 01:20:20;;;;;;;7.27;4.97;;;20.30;64.10;;;;;;4924144;29;20712;-68
2022/09/06 01:23:14;;;;;;;7.83;4.80;;;20.30;64.10;;;;;;4910937;29;20299;-68
2022/09/06 01:26:11;;;;;;;6.10;4.80;;;20.30;64.00;;;;;;4920502;29;20311;-68
2022/09/06 01:28:45;;;;;;;6.47;5.00;;;20.30;64.40;;;;;;4907116;28;20350;-68
2022/09/06 01:31:13;;;;;;;6.00;5.40;;;20.20;64.20;;;;;;4937148;29;20362;-68
2022/09/06 01:33:39;;;;;;;6.57;4.93;;;20.20;64.20;;;;;;4921929;29;20366;-68
2022/09/06 01:36:09;;;;;;;6.07;5.17;;;20.20;64.30;;;;;;4929130;29;20430;-68
2022/09/06 01:38:35;;;;;;;7.10;5.23;;;20.20;64.60;;;;;;4937740;28;20054;-68
2022/09/06 01:41:01;;;;;;;6.27;4.90;;;20.10;64.40;;;;;;4922879;28;20811;-68
2022/09/06 01:43:38;;;;;;;6.07;5.20;;;20.10;64.30;;;;;;4904570;29;20331;-68
2022/09/06 01:46:19;;;;;;;7.70;5.10;;;20.10;64.40;;;;;;4915584;28;20043;-68
2022/09/06 01:49:02;;;;;;;7.07;5.90;;;20.10;64.60;;;;;;4932028;28;20295;-68
2022/09/06 01:51:40;;;;;;;5.93;5.20;;;20.00;64.70;;;;;;4923496;29;20286;-68
2022/09/06 01:54:27;;;;;;;8.67;5.80;;;20.00;64.70;;;;;;4929451;28;20327;-68
2022/09/06 01:57:17;;;;;;;5.97;5.20;;;20.00;64.80;;;;;;4909678;28;20282;-68
2022/09/06 02:00:01;;;;;;;7.83;5.60;;;19.90;65.00;;;;;;4911952;29;20289;-68
2022/09/06 02:02:35;;;;;;;7.53;5.60;;;19.90;65.30;;;;;;4913923;28;20302;-68
2022/09/06 02:05:26;;;;;;;6.20;4.87;;;19.80;65.40;;;;;;4928197;28;20334;-68
2022/09/06 02:07:58;;;;;;;6.00;4.83;;;19.80;65.80;;;;;;4940194;28;20382;-68
2022/09/06 02:11:03;;;;;;;6.00;4.90;;;19.80;65.70;;;;;;4927592;28;20298;-68
2022/09/06 02:13:56;;;;;;;5.87;4.77;;;19.70;65.90;;;;;;4917482;28;20338;-68
2022/09/06 02:16:26;;;;;;;5.10;4.60;;;19.70;66.10;;;;;;4907136;28;20299;-68
2022/09/06 02:19:10;;;;;;;6.03;5.20;;;19.60;66.20;;;;;;4915382;29;20729;-68
2022/09/06 02:21:41;;;;;;;4.90;4.50;;;19.60;66.30;;;;;;4914094;28;20477;-68
2022/09/06 02:24:13;;;;;;;6.63;5.10;;;19.60;66.60;;;;;;4905148;29;20050;-68
2022/09/06 02:26:42;;;;;;;8.70;5.60;;;19.50;66.80;;;;;;4913200;28;20430;-68
2022/09/06 02:29:08;;;;;;;7.77;5.70;;;19.50;66.90;;;;;;4930855;28;20283;-68
2022/09/06 02:31:43;;;;;;;6.90;5.80;;;19.50;66.70;;;;;;4907792;29;20371;-68
2022/09/06 02:34:13;;;;;;;7.28;5.35;;;19.50;67.00;;;;;;4941271;28;20744;-68
2022/09/06 02:36:39;;;;;;;7.20;5.53;;;19.40;66.90;;;;;;4927144;28;20051;-68
2022/09/06 02:39:05;;;;;;;8.07;6.17;;;19.40;66.90;;;;;;4895957;29;20288;-68
2022/09/06 02:41:32;;;;;;;6.40;5.13;;;19.40;66.90;;;;;;4909568;29;20125;-68
2022/09/06 02:43:57;;;;;;;5.90;5.30;;;19.30;66.60;;;;;;4898832;28;20900;-68
2022/09/06 02:46:23;;;;;;;5.93;5.27;;;19.30;66.70;;;;;;4926366;28;20370;-68
2022/09/06 02:48:50;;;;;;;6.03;5.43;;;19.30;66.70;;;;;;4903987;29;20090;-68
2022/09/06 02:51:15;;;;;;;7.03;5.30;;;19.30;66.80;;;;;;4911522;29;20066;-68
2022/09/06 02:53:41;;;;;;;7.63;5.87;;;19.20;66.90;;;;;;4924038;29;20290;-68
2022/09/06 02:56:07;;;;;;;7.57;5.80;;;19.20;67.00;;;;;;4902554;29;20063;-68
2022/09/06 02:58:33;;;;;;;8.00;5.97;;;19.20;67.00;;;;;;4927007;28;20051;-68
2022/09/06 03:00:59;;;;;;;6.27;5.50;;;19.20;67.10;;;;;;4921250;29;20295;-68
2022/09/06 03:03:26;;;;;;;6.23;5.43;;;19.20;67.10;;;;;;4893811;29;20424;-68
2022/09/06 03:05:53;;;;;;;7.33;6.30;;;19.20;67.20;;;;;;4924232;29;20103;-68
2022/09/06 03:08:20;;;;;;;6.70;5.27;;;19.10;67.30;;;;;;4904126;29;20306;-68
2022/09/06 03:10:55;;;;;;;5.60;5.10;;;19.10;67.10;;;;;;4912126;29;20283;-68
2022/09/06 03:13:22;;;;;;;9.20;5.55;;;19.10;67.20;;;;;;4917697;28;20314;-68
2022/09/06 03:15:56;;;;;;;7.03;5.27;;;19.10;67.20;;;;;;4909457;29;20304;-68
2022/09/06 03:18:23;;;;;;;6.10;5.47;;;19.10;67.30;;;;;;4930486;28;20818;-68
2022/09/06 03:20:50;;;;;;;6.73;5.80;;;19.00;67.00;;;;;;4929968;29;20094;-68
2022/09/06 03:23:17;;;;;;;7.87;5.30;;;19.00;67.00;;;;;;4922758;29;20619;-68
2022/09/06 03:25:43;;;;;;;6.60;5.43;;;19.00;67.10;;;;;;4908851;28;20354;-68
2022/09/06 03:28:09;;;;;;;5.67;5.17;;;19.00;67.10;;;;;;4915401;29;20651;-68
2022/09/06 03:30:35;;;;;;;5.87;5.23;;;19.00;67.10;;;;;;4930032;28;20047;-68
2022/09/06 03:33:01;;;;;;;5.93;5.33;;;19.00;67.30;;;;;;4930624;29;20294;-68
2022/09/06 03:35:27;;;;;;;6.17;5.53;;;19.00;67.30;;;;;;4908917;28;20286;-68
2022/09/06 03:37:52;;;;;;;6.07;5.47;;;19.00;67.20;;;;;;4926008;29;20452;-68
2022/09/06 03:40:18;;;;;;;6.17;5.30;;;19.00;67.20;;;;;;4899350;29;20035;-68
2022/09/06 03:42:45;;;;;;;6.50;5.20;;;19.00;67.40;;;;;;4932712;28;20050;-68
2022/09/06 03:45:11;;;;;;;7.60;6.23;;;19.00;67.40;;;;;;4934402;29;20493;-68
2022/09/06 03:47:37;;;;;;;7.33;5.17;;;19.00;67.60;;;;;;4928005;28;20293;-67
2022/09/06 03:50:04;;;;;;;8.10;5.90;;;18.90;67.60;;;;;;4893036;28;20280;-68
2022/09/06 03:52:29;;;;;;;6.30;5.70;;;18.90;67.90;;;;;;4903466;28;20127;-68
2022/09/06 03:54:55;;;;;;;9.47;6.13;;;18.90;68.00;;;;;;4923769;29;20377;-68
2022/09/06 03:57:21;;;;;;;6.77;6.17;;;18.90;68.30;;;;;;4915257;29;20496;-68
2022/09/06 03:59:47;;;;;;;7.23;6.03;;;18.90;68.30;;;;;;4912387;29;20058;-68
2022/09/06 04:02:12;;;;;;;6.67;6.03;;;18.90;68.50;;;;;;4926485;29;20428;-68
2022/09/06 04:04:38;;;;;;;7.23;6.33;;;18.90;68.90;;;;;;4930972;28;20059;-68
2022/09/06 04:07:04;;;;;;;9.47;6.90;;;18.90;69.20;;;;;;4931393;29;20069;-68
2022/09/06 04:09:30;;;;;;;8.77;7.10;;;18.80;69.70;;;;;;4925196;28;20055;-68
2022/09/06 04:11:55;;;;;;;7.97;7.17;;;18.80;69.80;;;;;;4893854;29;20044;-68
2022/09/06 04:14:21;;;;;;;10.50;7.40;;;18.80;70.20;;;;;;4932509;28;20053;-68
2022/09/06 04:16:47;;;;;;;8.80;6.90;;;18.70;70.10;;;;;;4927783;29;20070;-68
2022/09/06 04:19:13;;;;;;;10.50;7.23;;;18.70;70.90;;;;;;4931439;28;20291;-68
2022/09/06 04:21:38;;;;;;;7.47;6.77;;;18.60;71.20;;;;;;4932418;29;20043;-68
2022/09/06 04:24:04;;;;;;;7.20;6.43;;;18.60;71.30;;;;;;4932129;28;20085;-68
2022/09/06 04:26:30;;;;;;;10.93;7.33;;;18.60;71.80;;;;;;4913706;28;20121;-68
2022/09/06 04:28:55;;;;;;;8.27;7.33;;;18.50;72.20;;;;;;4917322;28;20047;-68
2022/09/06 04:31:21;;;;;;;8.73;7.30;;;18.40;72.30;;;;;;4911983;29;20042;-68
2022/09/06 04:33:47;;;;;;;8.83;6.53;;;18.40;72.80;;;;;;4926882;28;20039;-68
2022/09/06 04:36:12;;;;;;;8.30;6.97;;;18.30;73.30;;;;;;4928901;29;20046;-68
2022/09/06 04:38:40;;;;;;;14.03;7.27;;;18.30;73.60;;;;;;4912536;28;20469;-68
2022/09/06 04:41:08;;;;;;;8.20;7.40;;;18.20;73.60;;;;;;4921114;29;20365;-68
2022/09/06 04:43:33;;;;;;;11.57;7.00;;;18.10;74.00;;;;;;4916068;28;20664;-68
2022/09/06 04:46:20;;;;;;;10.03;7.80;;;18.00;74.50;;;;;;4929590;29;20275;-68
2022/09/06 04:48:47;;;;;;;11.13;7.97;;;18.00;74.70;;;;;;4946530;28;20066;-68
2022/09/06 04:51:13;;;;;;;7.90;7.20;;;18.00;74.60;;;;;;4927365;29;20283;-68
2022/09/06 04:53:38;;;;;;;9.03;7.53;;;17.90;74.70;;;;;;4931905;28;20298;-68
2022/09/06 04:56:05;;;;;;;8.63;7.33;;;17.90;75.00;;;;;;4897895;29;20175;-68
2022/09/06 04:58:30;;;;;;;9.40;7.47;;;17.90;75.10;;;;;;4929757;28;20113;-68
2022/09/06 05:00:56;;;;;;;10.00;7.67;;;17.80;75.60;;;;;;4912977;29;20382;-68
2022/09/06 05:03:22;;;;;;;8.97;8.07;;;17.80;75.40;;;;;;4915987;28;20055;-68
2022/09/06 05:05:48;;;;;;;9.27;7.80;;;17.80;75.60;;;;;;4932617;29;20114;-68
2022/09/06 05:08:14;;;;;;;12.03;8.53;;;17.80;75.90;;;;;;4932021;28;20047;-68
2022/09/06 05:10:39;;;;;;;9.27;8.30;;;17.80;75.60;;;;;;4924601;28;20039;-68
2022/09/06 05:13:05;;;;;;;8.40;7.50;;;17.80;75.90;;;;;;4895710;28;20031;-68
2022/09/06 05:15:32;;;;;;;9.87;7.80;;;17.70;76.00;;;;;;4931433;29;20493;-68
2022/09/06 05:18:03;;;;;;;8.93;8.10;;;17.80;75.80;;;;;;4900250;28;20050;-68
2022/09/06 05:20:29;;;;;;;11.00;8.30;;;17.80;76.00;;;;;;4900037;28;20352;-68
2022/09/06 05:22:55;;;;;;;8.90;8.00;;;17.70;76.30;;;;;;4927981;28;20432;-68
2022/09/06 05:25:21;;;;;;;8.83;7.93;;;17.70;75.90;;;;;;4914695;29;20427;-68
2022/09/06 05:27:46;;;;;;;9.00;8.10;;;17.70;75.70;;;;;;4926397;29;20108;-68
2022/09/06 05:30:13;;;;;;;11.27;8.13;;;17.70;75.50;;;;;;4908861;29;20464;-68
2022/09/06 05:32:39;;;;;;;8.43;7.50;;;17.70;75.60;;;;;;4915817;28;20049;-68
2022/09/06 05:35:05;;;;;;;8.80;7.90;;;17.70;75.60;;;;;;4926299;29;20299;-68
2022/09/06 05:37:30;;;;;;;8.50;7.70;;;17.70;75.70;;;;;;4929655;29;20039;-68
2022/09/06 05:39:58;;;;;;;8.83;7.87;;;17.70;75.90;;;;;;4910134;29;20051;-68
2022/09/06 05:42:24;;;;;;;10.03;7.90;;;17.70;75.90;;;;;;4900501;28;20067;-68
2022/09/06 05:44:50;;;;;;;11.57;8.07;;;17.70;75.80;;;;;;4930278;29;20385;-68
2022/09/06 05:47:15;;;;;;;9.27;7.60;;;17.70;75.50;;;;;;4929286;29;20123;-68
2022/09/06 05:49:41;;;;;;;10.07;7.93;;;17.70;75.90;;;;;;4895317;29;20036;-68
2022/09/06 05:52:07;;;;;;;12.57;8.23;;;17.70;76.00;;;;;;4912596;29;20273;-68
2022/09/06 05:54:33;;;;;;;9.90;8.10;;;17.70;75.80;;;;;;4901469;28;20052;-68
2022/09/06 05:56:58;;;;;;;11.10;8.23;;;17.70;75.70;;;;;;4909166;29;20047;-68
2022/09/06 05:59:25;;;;;;;8.23;7.40;;;17.70;75.80;;;;;;4924746;29;20074;-68
2022/09/06 06:01:52;;;;;;;9.50;7.57;;;17.60;75.90;;;;;;4928326;29;20055;-68
2022/09/06 06:04:19;;;;;;;8.27;7.47;;;17.60;76.00;;;;;;4913798;29;20377;-67
2022/09/06 06:06:45;;;;;;;9.60;8.47;;;17.60;75.70;;;;;;4934740;28;20286;-68
2022/09/06 06:09:12;;;;;;;9.53;8.37;;;17.50;75.90;;;;;;4914522;29;20497;-68
2022/09/06 06:11:37;;;;;;;8.87;7.77;;;17.50;76.50;;;;;;4922493;29;20299;-68
2022/09/06 06:14:04;;;;;;;9.27;8.37;;;17.50;76.60;;;;;;4905267;29;20683;-68
2022/09/06 06:16:30;;;;;;;10.93;8.30;;;17.50;76.60;;;;;;4928333;28;20051;-68
2022/09/06 06:18:56;;;;;;;9.33;8.43;;;17.50;76.60;;;;;;4932529;29;20341;-68
2022/09/06 06:21:24;;;;;;;9.80;8.80;;;17.50;76.60;;;;;;4927947;29;20340;-68
2022/09/06 06:23:55;;;;;;;10.27;8.50;;;17.50;76.30;;;;;;4919923;29;20114;-68
2022/09/06 06:26:22;;;;;;;14.13;9.13;;;17.60;76.30;;;;;;4928900;28;20666;-68
2022/09/06 06:28:47;;;;;;;12.67;8.93;;;17.60;76.10;;;;;;4922646;29;20779;-68
2022/09/06 06:31:13;;;;;;;12.60;10.03;;;17.60;76.30;;;;;;4913970;29;20291;-68
2022/09/06 06:33:40;;;;;;;9.50;8.53;;;17.70;76.40;;;;;;4924657;29;20047;-68
2022/09/06 06:36:29;;;;;;;10.53;9.50;;;17.70;76.70;;;;;;4913237;29;20039;-68
2022/09/06 06:38:55;;;;;;;10.27;9.20;;;17.80;76.10;;;;;;4917509;29;20291;-68
2022/09/06 06:41:24;;;;;;;10.07;9.07;;;18.00;76.50;;;;;;4908011;28;20711;-68
2022/09/06 06:44:00;;;;;;;12.00;9.27;;;18.10;75.90;;;;;;4929900;28;20050;-68
2022/09/06 06:46:28;;;;;;;13.20;9.10;;;18.30;75.70;;;;;;4930239;28;20350;-68
2022/09/06 06:48:54;;;;;;;11.43;9.17;;;18.40;75.30;;;;;;4903417;29;20290;-68
2022/09/06 06:51:22;;;;;;;10.43;9.33;;;18.50;75.20;;;;;;4923406;29;20287;-68
2022/09/06 06:53:47;;;;;;;11.67;9.20;;;18.60;74.60;;;;;;4909244;29;20049;-68
2022/09/06 06:56:23;;;;;;;10.47;9.40;;;18.60;74.20;;;;;;4895391;29;20299;-68
2022/09/06 06:58:51;;;;;;;12.37;7.93;;;18.50;74.40;;;;;;4938975;29;20046;-68
2022/09/06 07:01:19;;;;;;;10.20;8.93;;;18.50;74.80;;;;;;4926134;28;20621;-68
2022/09/06 07:03:45;;;;;;;10.70;9.47;;;18.50;75.40;;;;;;4928390;29;20378;-68
2022/09/06 07:06:12;;;;;;;12.00;9.60;;;18.60;74.70;;;;;;4928194;29;20346;-68
2022/09/06 07:08:38;;;;;;;10.33;9.13;;;18.70;74.90;;;;;;4923705;28;20275;-68
2022/09/06 07:11:05;;;;;;;11.33;9.70;;;18.80;74.50;;;;;;4917113;29;20291;-68
2022/09/06 07:13:33;;;;;;;10.70;9.70;;;18.90;74.20;;;;;;4909731;28;20633;-68
2022/09/06 07:16:12;;;;;;;11.30;9.67;;;19.00;74.20;;;;;;4911317;29;20323;-68
2022/09/06 07:18:40;;;;;;;11.63;9.40;;;19.20;74.50;;;;;;4919266;28;20278;-68
2022/09/06 07:21:17;;;;;;;11.47;9.63;;;19.30;74.10;;;;;;4926453;28;20290;-68
2022/09/06 07:23:43;;;;;;;11.13;9.60;;;19.50;74.20;;;;;;4925286;29;20305;-68
2022/09/06 07:26:19;;;;;;;10.20;9.20;;;19.60;73.50;;;;;;4930113;28;20346;-68
2022/09/06 07:28:45;;;;;;;10.77;9.67;;;19.70;73.10;;;;;;4914037;29;20282;-68
2022/09/06 07:31:11;;;;;;;9.97;8.80;;;19.70;72.60;;;;;;4934253;29;20790;-68
2022/09/06 07:33:38;;;;;;;11.43;10.23;;;19.80;72.60;;;;;;4916195;29;21078;-68
2022/09/06 07:36:06;;;;;;;11.70;10.00;;;19.80;72.90;;;;;;4907743;29;20294;-68
2022/09/06 07:38:33;;;;;;;11.37;9.67;;;19.80;72.80;;;;;;4924657;29;20287;-68
2022/09/06 07:41:01;;;;;;;9.47;8.57;;;19.80;72.50;;;;;;4906897;29;20298;-68
2022/09/06 07:43:28;;;;;;;11.20;9.90;;;19.90;72.60;;;;;;4926267;29;20389;-68
2022/09/06 07:46:18;;;;;;;10.97;9.77;;;19.90;72.70;;;;;;4935772;28;20281;-67
2022/09/06 07:48:45;;;;;;;10.83;9.73;;;19.90;72.60;;;;;;4922191;28;20311;-68
2022/09/06 07:51:15;;;;;;;12.50;10.30;;;19.80;72.60;;;;;;4910641;29;20283;-68
2022/09/06 07:53:42;;;;;;;12.30;9.87;;;19.80;72.60;;;;;;4925624;28;20280;-68
2022/09/06 07:56:11;;;;;;;10.67;9.67;;;19.80;73.00;;;;;;4932494;28;20150;-68
2022/09/06 07:58:38;;;;;;;11.97;10.77;;;19.90;72.90;;;;;;4910057;29;20621;-68
2022/09/06 08:01:19;;;;;;;11.27;10.07;;;20.00;72.90;;;;;;4930063;29;21103;-68
2022/09/06 08:03:46;;;;;;;12.63;9.40;;;20.10;73.10;;;;;;4887870;29;20400;-68
2022/09/06 08:06:11;;;;;;;13.37;10.07;;;20.30;72.80;;;;;;4882013;29;20300;-68
2022/09/06 08:08:38;;;;;;;11.43;10.27;;;20.50;72.60;;;;;;4901895;29;20837;-68
2022/09/06 08:11:06;;;;;;;12.00;10.77;;;20.60;72.30;;;;;;4900164;29;20045;-68
2022/09/06 08:13:33;;;;;;;10.63;9.53;;;20.80;71.90;;;;;;4899164;29;20844;-68
2022/09/06 08:16:00;;;;;;;11.07;9.97;;;20.90;71.30;;;;;;4884762;29;20092;-68
2022/09/06 08:18:26;;;;;;;15.53;10.07;;;21.10;70.70;;;;;;4903564;29;20465;-68
2022/09/06 08:20:51;;;;;;;12.67;9.90;;;21.20;70.40;;;;;;4868508;29;20079;-68
2022/09/06 08:23:17;;;;;;;11.63;10.10;;;21.30;70.00;;;;;;4901227;29;20054;-68
2022/09/06 08:25:43;;;;;;;11.53;10.33;;;21.50;69.60;;;;;;4904742;29;20047;-68
2022/09/06 08:28:08;;;;;;;11.30;10.13;;;21.60;69.60;;;;;;4896377;29;20539;-68
2022/09/06 08:30:34;;;;;;;13.53;10.57;;;21.80;69.40;;;;;;4894635;29;20453;-68
2022/09/06 08:33:01;;;;;;;11.53;10.33;;;21.90;68.60;;;;;;4884231;29;20050;-68
2022/09/06 08:35:27;;;;;;;11.10;10.00;;;22.10;68.20;;;;;;4889371;29;20040;-68
2022/09/06 08:37:56;;;;;;;12.47;10.07;;;22.10;67.80;;;;;;4881037;29;20053;-68
2022/09/06 08:40:24;;;;;;;12.33;10.67;;;22.30;67.60;;;;;;4894229;29;20047;-68
2022/09/06 08:42:50;;;;;;;11.23;10.13;;;22.30;66.90;;;;;;4880311;29;20053;-68
2022/09/06 08:45:22;;;;;;;11.83;9.67;;;22.40;66.70;;;;;;4881302;29;20119;-68
2022/09/06 08:47:49;;;;;;;11.00;9.60;;;22.50;66.50;;;;;;4880883;29;20529;-68
2022/09/06 08:50:16;;;;;;;13.20;9.30;;;22.60;66.30;;;;;;4894908;29;20083;-68
2022/09/06 08:53:01;;;;;;;11.47;10.27;;;22.60;65.80;;;;;;4895482;29;20098;-68
2022/09/06 08:55:42;;;;;;;13.13;9.02;;;22.70;65.10;;;;;;4902846;29;20051;-68
2022/09/06 08:58:32;;;;;;;12.97;9.70;;;22.80;65.20;;;;;;4880776;29;20040;-68
2022/09/06 09:01:10;;;;;;;11.37;9.57;;;22.90;64.40;;;;;;4918208;29;20053;-68
2022/09/06 09:03:38;;;;;;;11.97;9.27;;;22.90;64.70;;;;;;4887383;29;20049;-68
2022/09/06 09:06:08;;;;;;;9.87;8.87;;;23.00;64.80;;;;;;4896809;29;20412;-68
2022/09/06 09:08:48;;;;;;;13.27;9.30;;;23.10;64.40;;;;;;4891865;29;20112;-68
2022/09/06 09:11:17;;;;;;;10.87;9.23;;;23.20;64.40;;;;;;4902856;29;20457;-69
2022/09/06 09:13:46;;;;;;;11.77;9.30;;;23.40;64.10;;;;;;4901576;29;20208;-68
2022/09/06 09:16:13;;;;;;;11.83;9.90;;;23.50;63.50;;;;;;4886068;29;20040;-68
2022/09/06 09:18:44;;;;;;;9.93;8.90;;;23.50;63.90;;;;;;4902898;29;20056;-68
2022/09/06 09:21:10;;;;;;;10.40;9.30;;;23.60;63.70;;;;;;4897987;29;20408;-68
2022/09/06 09:23:36;;;;;;;10.53;9.53;;;23.70;63.30;;;;;;4892646;29;20585;-68
2022/09/06 09:26:05;;;;;;;11.77;9.60;;;23.80;63.40;;;;;;4900224;29;20945;-68
2022/09/06 09:28:31;;;;;;;10.10;9.10;;;24.00;62.80;;;;;;4899728;29;20139;-69
2022/09/06 09:30:57;;;;;;;9.63;8.63;;;24.00;62.20;;;;;;4902663;29;20047;-68
2022/09/06 09:33:35;;;;;;;11.30;8.57;;;24.00;62.50;;;;;;4882053;29;21261;-69
2022/09/06 09:36:12;;;;;;;10.83;9.10;;;23.90;62.20;;;;;;4898854;29;20433;-69
2022/09/06 09:38:48;;;;;;;10.03;9.03;;;23.90;62.40;;;;;;4908017;29;20036;-69
2022/09/06 09:41:33;;;;;;;9.67;8.73;;;24.00;62.80;;;;;;4903989;29;20577;-69
2022/09/06 09:44:03;;;;;;;;;;;24.10;62.10;;;;;;4901030;29;20561;-69
2022/09/06 09:46:38;;;;;;;10.33;8.50;;;24.10;61.50;;;;;;4921397;29;20384;-69
2022/09/06 09:49:10;;;;;;;;;;;24.20;61.90;;;;;;4895551;29;20111;-68
2022/09/06 09:51:38;;;;;;;9.20;8.30;;;24.30;61.50;;;;;;4900302;29;19946;-68
2022/09/06 09:54:07;;;;;;;9.10;8.20;;;24.30;61.00;;;;;;4900798;29;20044;-69
2022/09/06 09:56:53;;;;;;;9.47;8.37;;;24.50;61.20;;;;;;4891387;29;20509;-69
2022/09/06 09:59:25;;;;;;;8.97;8.17;;;24.60;60.70;;;;;;4890564;29;20556;-69
2022/09/06 10:01:58;;;;;;;8.50;7.63;;;24.70;60.20;;;;;;4911988;29;20059;-68
2022/09/06 10:04:44;;;;;;;10.80;8.23;;;24.80;59.80;;;;;;4925311;28;20098;-68
2022/09/06 10:07:22;;;;;;;9.97;8.03;;;25.00;59.20;;;;;;4920711;28;20488;-69
2022/09/06 10:09:49;;;;;;;8.73;7.83;;;25.10;58.60;;;;;;4913931;28;20035;-69
2022/09/06 10:12:31;;;;;;;8.73;7.87;;;25.20;58.00;;;;;;4918954;29;20039;-68
2022/09/06 10:14:57;;;;;;;8.77;7.03;;;25.30;58.10;;;;;;4922115;29;20051;-68
2022/09/06 10:17:25;;;;;;;9.23;8.33;;;25.40;58.10;;;;;;4919524;28;20411;-68
2022/09/06 10:19:52;;;;;;;9.63;8.23;;;25.50;57.60;;;;;;4923176;28;20170;-68
2022/09/06 10:22:37;;;;;;;9.10;8.10;;;25.60;57.10;;;;;;4910567;29;20070;-68
2022/09/06 10:25:06;;;;;;;10.63;9.00;;;25.60;57.00;;;;;;4942695;28;20053;-68
2022/09/06 10:27:32;;;;;;;12.40;8.77;;;25.70;56.50;;;;;;4935406;28;20051;-68
2022/09/06 10:30:05;;;;;;;10.17;9.07;;;25.70;56.80;;;;;;4917837;29;20050;-68
2022/09/06 10:32:46;;;;;;;10.70;8.83;;;25.80;55.90;;;;;;4910761;28;20047;-68
2022/09/06 10:35:22;;;;;;;11.53;7.97;;;25.80;56.20;;;;;;4905727;29;20175;-68
2022/09/06 10:38:16;;;;;;;8.77;7.83;;;25.90;56.40;;;;;;4926249;29;20043;-68
2022/09/06 10:40:50;;;;;;;8.67;7.40;;;26.00;55.60;;;;;;4925638;28;20042;-68
2022/09/06 10:43:18;;;;;;;9.32;8.20;;;26.10;55.80;;;;;;4908190;28;20075;-68
2022/09/06 10:45:46;;;;;;;11.30;8.40;;;26.30;55.60;;;;;;4921946;29;20048;-68
2022/09/06 10:48:34;;;;;;;10.33;8.53;;;26.30;55.50;;;;;;4921413;29;20056;-68
2022/09/06 10:51:27;;;;;;;8.47;7.57;;;26.40;55.30;;;;;;4937106;28;20079;-69
2022/09/06 10:54:10;;;;;;;10.17;7.70;;;26.60;55.00;;;;;;4918436;29;20043;-69
2022/09/06 10:56:48;;;;;;;11.77;8.73;;;26.80;54.30;;;;;;4919451;28;20126;-68
2022/09/06 10:59:36;;;;;;;8.53;7.73;;;26.90;54.10;;;;;;4903802;28;20089;-68
2022/09/06 11:02:15;;;;;;;9.80;8.50;;;27.00;53.40;;;;;;4925713;29;20070;-69
2022/09/06 11:04:43;;;;;;;10.03;8.13;;;26.90;53.10;;;;;;4906940;28;20046;-69
2022/09/06 11:07:36;;;;;;;8.67;7.23;;;26.90;54.00;;;;;;4918794;29;20392;-69
2022/09/06 11:10:33;;;;;;;7.27;6.40;;;27.00;53.60;;;;;;4920455;28;20181;-68
2022/09/06 11:13:05;;;;;;;8.00;7.17;;;27.20;52.70;;;;;;4921891;28;20047;-68
2022/09/06 11:15:41;;;;;;;7.63;6.83;;;27.20;52.70;;;;;;4930399;29;20460;-69
2022/09/06 11:18:12;;;;;;;8.00;5.70;;;27.30;52.60;;;;;;4906514;28;20050;-69
2022/09/06 11:20:41;;;;;;;5.43;4.93;;;27.40;52.20;;;;;;4924592;28;20039;-68
2022/09/06 11:23:16;;;;;;;6.47;5.87;;;27.40;51.70;;;;;;4916217;29;20079;-69
2022/09/06 11:25:51;;;;;;;6.70;6.07;;;27.60;51.40;;;;;;4936230;28;20050;-69
2022/09/06 11:28:53;;;;;;;9.47;6.60;;;27.60;49.80;;;;;;4912571;28;20035;-69
2022/09/06 11:31:30;;;;;;;9.60;5.57;;;27.60;50.60;;;;;;4905366;29;20043;-69
2022/09/06 11:34:09;;;;;;;7.20;5.10;;;27.70;50.90;;;;;;4919377;28;20039;-69
2022/09/06 11:36:56;;;;;;;6.07;5.47;;;27.80;50.70;;;;;;4921770;28;20126;-69
2022/09/06 11:39:35;;;;;;;5.90;5.13;;;27.90;50.40;;;;;;4913293;28;20098;-69
2022/09/06 11:42:01;;;;;;;5.30;3.70;;;28.10;49.70;;;;;;4923197;28;20122;-69
2022/09/06 11:44:49;;;;;;;5.40;4.23;;;28.10;48.10;;;;;;4921628;28;20043;-69
2022/09/06 11:47:39;;;;;;;5.10;4.60;;;28.10;48.40;;;;;;4925784;29;20277;-69
2022/09/06 11:50:20;;;;;;;5.50;4.50;;;28.10;48.70;;;;;;4906601;28;20044;-69
2022/09/06 11:53:17;;;;;;;4.10;3.67;;;28.10;48.60;;;;;;4920419;29;20047;-69
2022/09/06 11:55:48;;;;;;;4.50;3.43;;;28.20;48.10;;;;;;4903710;29;20040;-69
2022/09/06 11:58:16;;;;;;;5.53;4.10;;;28.30;48.30;;;;;;4919479;28;20040;-69
2022/09/06 12:01:06;;;;;;;5.13;4.63;;;28.20;48.00;;;;;;4920395;29;20043;-69
2022/09/06 12:03:47;;;;;;;4.30;3.77;;;28.10;48.50;;;;;;4926748;28;20090;-69
2022/09/06 12:06:22;;;;;;;4.43;3.60;;;28.40;49.10;;;;;;4927706;28;20118;-69
2022/09/06 12:08:48;;;;;;;;;;;28.70;48.60;;;;;;4929106;29;20484;-69
2022/09/06 12:11:43;;;;;;;3.53;3.23;;;28.90;48.30;;;;;;4914389;28;20414;-69
2022/09/06 12:14:30;;;;;;;4.27;3.87;;;29.10;46.90;;;;;;4916407;29;20460;-69
2022/09/06 12:16:59;;;;;;;4.80;3.17;;;29.30;47.30;;;;;;4920327;29;20107;-69
2022/09/06 12:19:46;;;;;;;3.03;2.73;;;29.40;47.40;;;;;;4918835;28;20110;-69
2022/09/06 12:22:34;;;;;;;7.87;2.77;;;29.60;46.20;;;;;;4918528;29;20471;-69
2022/09/06 12:25:00;;;;;;;4.10;2.73;;;29.60;45.30;;;;;;4911022;29;20523;-69
2022/09/06 12:27:33;;;;;;;4.83;2.60;;;29.40;45.90;;;;;;4922830;28;20064;-69
2022/09/06 12:30:11;;;;;;;3.20;1.90;;;29.30;46.00;;;;;;4910534;29;20053;-69
2022/09/06 12:32:42;;;;;;;13.20;3.53;;;29.20;46.30;;;;;;4920467;29;20036;-69
2022/09/06 12:35:14;;;;;;;13.03;3.10;;;29.30;45.80;;;;;;4910082;29;20039;-69
2022/09/06 12:37:53;;;;;;;41.60;6.87;;;29.40;45.40;;;;;;4906323;28;20043;-69
2022/09/06 12:40:20;;;;;;;43.03;7.17;;;29.30;44.90;;;;;;4939365;28;20046;-69
2022/09/06 12:42:50;;;;;;;4.83;2.70;;;29.40;45.50;;;;;;4930077;29;20050;-69
2022/09/06 12:45:18;;;;;;;6.40;3.07;;;29.50;46.00;;;;;;4943825;28;20047;-69
2022/09/06 12:47:44;;;;;;;3.83;3.33;;;29.80;45.20;;;;;;4935308;28;20047;-69
2022/09/06 12:50:16;;;;;;;3.70;3.30;;;29.90;45.20;;;;;;4940935;28;20381;-69
2022/09/06 12:53:00;;;;;;;6.23;3.20;;;29.80;45.10;;;;;;4924860;29;20039;-69
2022/09/06 12:55:27;;;;;;;7.20;3.03;;;29.50;45.30;;;;;;4939470;28;20047;-68
2022/09/06 12:57:55;;;;;;;3.80;2.53;;;29.20;46.00;;;;;;4926564;29;20043;-69
2022/09/06 13:00:23;;;;;;;5.03;2.20;;;29.10;46.30;;;;;;4927660;29;20464;-69
2022/09/06 13:02:56;;;;;;;2.93;1.90;;;29.20;46.70;;;;;;4892428;29;20067;-69